createdAt,value
2022-11-16T00:00:46.410Z,6.20
2022-11-16T00:02:23.127Z,5.14
2022-11-16T00:03:54.751Z,4.46
2022-11-16T00:05:36.138Z,4.36
2022-11-16T00:07:22.381Z,5.89
2022-11-16T00:08:55.022Z,5.68
2022-11-16T00:10:26.503Z,5.72
2022-11-16T00:11:58.258Z,5.00
2022-11-16T00:13:29.599Z,5.57
2022-11-16T00:15:01.084Z,7.46
2022-11-16T00:16:32.723Z,6.73
2022-11-16T00:18:04.270Z,5.37
2022-11-16T00:19:35.816Z,5.20
2022-11-16T00:21:28.078Z,6.50
2022-11-16T00:23:01.951Z,6.60
2022-11-16T00:24:33.701Z,4.84
2022-11-16T00:26:05.387Z,5.32
2022-11-16T00:27:36.844Z,5.03
2022-11-16T00:29:13.592Z,6.37
2022-11-16T00:30:45.001Z,7.42
2022-11-16T00:32:16.527Z,6.58
2022-11-16T00:33:47.965Z,5.97
2022-11-16T00:35:19.648Z,6.42
2022-11-16T00:36:51.540Z,5.09
2022-11-16T00:38:22.929Z,7.11
2022-11-16T00:39:54.574Z,6.09
2022-11-16T00:41:34.732Z,5.79
2022-11-16T00:43:37.364Z,6.30
2022-11-16T00:45:11.672Z,7.06
2022-11-16T00:46:52.324Z,8.70
2022-11-16T00:48:24.300Z,6.95
2022-11-16T00:49:56.071Z,6.11
2022-11-16T00:51:27.783Z,6.93
2022-11-16T00:52:59.300Z,5.95
2022-11-16T00:54:30.997Z,6.22
2022-11-16T00:56:18.183Z,6.05
2022-11-16T00:58:15.256Z,7.28
2022-11-16T00:59:46.955Z,6.75
2022-11-16T01:01:18.600Z,7.16
2022-11-16T01:02:50.162Z,9.50
2022-11-16T01:04:22.161Z,7.98
2022-11-16T01:05:53.447Z,6.66
2022-11-16T01:07:24.839Z,7.81
2022-11-16T01:08:56.265Z,6.05
2022-11-16T01:10:27.723Z,6.79
2022-11-16T01:12:14.111Z,6.99
2022-11-16T01:13:45.669Z,6.19
2022-11-16T01:15:17.223Z,7.39
2022-11-16T01:16:49.008Z,6.62
2022-11-16T01:18:20.455Z,7.39
2022-11-16T01:19:51.789Z,6.22
2022-11-16T01:21:23.204Z,6.57
2022-11-16T01:22:59.735Z,7.91
2022-11-16T01:24:31.083Z,8.25
2022-11-16T01:26:02.514Z,7.02
2022-11-16T01:27:33.904Z,7.56
2022-11-16T01:29:05.238Z,8.03
2022-11-16T01:30:36.570Z,7.81
2022-11-16T01:32:08.256Z,8.55
2022-11-16T01:33:39.642Z,8.32
2022-11-16T01:35:11.061Z,7.35
2022-11-16T01:36:42.740Z,7.95
2022-11-16T01:38:14.178Z,8.68
2022-11-16T01:39:45.861Z,8.23
2022-11-16T01:41:17.485Z,8.39
2022-11-16T01:42:49.240Z,8.92
2022-11-16T01:44:20.752Z,7.55
2022-11-16T01:45:52.352Z,8.68
2022-11-16T01:47:24.072Z,7.38
2022-11-16T01:48:55.564Z,8.73
2022-11-16T01:50:26.973Z,7.14
2022-11-16T01:51:58.805Z,8.34
2022-11-16T01:53:40.356Z,7.21
2022-11-16T01:55:11.711Z,8.06
2022-11-16T01:56:48.143Z,8.41
2022-11-16T01:58:22.264Z,7.74
2022-11-16T01:59:53.762Z,7.88
2022-11-16T02:01:25.380Z,7.25
2022-11-16T02:02:57.024Z,7.80
2022-11-16T02:04:28.912Z,6.91
2022-11-16T02:06:00.913Z,7.32
2022-11-16T02:07:32.270Z,7.60
2022-11-16T02:09:03.942Z,6.99
2022-11-16T02:10:35.687Z,7.09
2022-11-16T02:12:07.278Z,7.00
2022-11-16T02:13:38.893Z,8.07
2022-11-16T02:15:10.332Z,10.12
2022-11-16T02:16:41.966Z,19.59
2022-11-16T02:18:13.751Z,11.61
2022-11-16T02:19:45.129Z,8.80
2022-11-16T02:21:17.325Z,7.80
2022-11-16T02:22:49.145Z,7.31
2022-11-16T02:24:20.599Z,6.61
2022-11-16T02:25:52.107Z,7.46
2022-11-16T02:27:28.759Z,7.48
2022-11-16T02:29:00.173Z,8.59
2022-11-16T02:30:31.518Z,8.64
2022-11-16T02:32:02.943Z,8.22
2022-11-16T02:33:39.216Z,9.04
2022-11-16T02:35:15.665Z,8.61
2022-11-16T02:36:48.222Z,8.03
2022-11-16T02:38:19.555Z,9.24
2022-11-16T02:39:50.808Z,7.80
2022-11-16T02:41:22.462Z,7.72
2022-11-16T02:42:53.804Z,7.45
2022-11-16T02:44:25.335Z,7.85
2022-11-16T02:45:56.598Z,9.00
2022-11-16T02:47:28.058Z,8.78
2022-11-16T02:48:59.490Z,7.89
2022-11-16T02:50:30.852Z,7.20
2022-11-16T02:52:02.365Z,9.61
2022-11-16T02:53:33.635Z,6.28
2022-11-16T02:55:06.054Z,5.99
2022-11-16T02:56:37.433Z,6.31
2022-11-16T02:58:09.256Z,6.15
2022-11-16T02:59:40.700Z,7.05
2022-11-16T03:01:12.041Z,6.23
2022-11-16T03:02:43.483Z,7.48
2022-11-16T03:04:14.827Z,9.07
2022-11-16T03:05:46.170Z,9.07
2022-11-16T03:07:17.582Z,7.97
2022-11-16T03:08:59.194Z,8.94
2022-11-16T03:10:30.609Z,7.78
2022-11-16T03:12:02.037Z,8.86
2022-11-16T03:13:34.069Z,6.87
2022-11-16T03:15:05.412Z,8.69
2022-11-16T03:16:36.758Z,5.99
2022-11-16T03:18:09.151Z,6.58
2022-11-16T03:19:40.657Z,7.40
2022-11-16T03:21:12.146Z,6.15
2022-11-16T03:22:43.813Z,7.02
2022-11-16T03:24:15.154Z,5.33
2022-11-16T03:25:46.479Z,5.93
2022-11-16T03:27:17.932Z,6.61
2022-11-16T03:28:49.245Z,6.06
2022-11-16T03:30:23.521Z,5.17
2022-11-16T03:31:55.247Z,6.24
2022-11-16T03:33:27.103Z,6.22
2022-11-16T03:34:58.567Z,4.56
2022-11-16T03:36:29.902Z,4.58
2022-11-16T03:38:01.395Z,6.47
2022-11-16T03:39:32.781Z,5.76
2022-11-16T03:41:04.516Z,5.00
2022-11-16T03:42:35.792Z,5.31
2022-11-16T03:44:07.021Z,4.18
2022-11-16T03:45:38.309Z,4.21
2022-11-16T03:47:09.632Z,3.96
2022-11-16T03:48:40.898Z,3.47
2022-11-16T03:50:12.131Z,4.52
2022-11-16T03:51:43.756Z,4.00
2022-11-16T03:53:15.122Z,3.61
2022-11-16T03:54:46.365Z,4.20
2022-11-16T03:56:17.818Z,3.81
2022-11-16T03:57:49.325Z,3.66
2022-11-16T03:59:20.735Z,3.51
2022-11-16T04:00:52.331Z,4.57
2022-11-16T04:02:23.725Z,4.29
2022-11-16T04:03:55.097Z,4.00
2022-11-16T04:05:26.638Z,4.70
2022-11-16T04:06:58.128Z,4.46
2022-11-16T04:08:29.395Z,3.45
2022-11-16T04:10:00.664Z,4.38
2022-11-16T04:11:32.035Z,4.67
2022-11-16T04:13:04.066Z,3.87
2022-11-16T04:14:35.847Z,3.59
2022-11-16T04:16:07.224Z,3.82
2022-11-16T04:17:39.007Z,3.62
2022-11-16T04:19:10.387Z,4.51
2022-11-16T04:20:41.765Z,3.08
2022-11-16T04:22:13.110Z,3.44
2022-11-16T04:23:49.720Z,4.24
2022-11-16T04:25:21.009Z,4.97
2022-11-16T04:26:52.579Z,3.82
2022-11-16T04:28:23.922Z,4.70
2022-11-16T04:29:55.469Z,4.16
2022-11-16T04:31:26.831Z,5.04
2022-11-16T04:32:58.661Z,3.65
2022-11-16T04:34:35.101Z,4.24
2022-11-16T04:36:06.418Z,5.67
2022-11-16T04:37:37.672Z,4.97
2022-11-16T04:39:09.081Z,4.69
2022-11-16T04:40:40.769Z,3.87
2022-11-16T04:42:12.483Z,5.82
2022-11-16T04:43:54.461Z,3.58
2022-11-16T04:45:53.213Z,3.83
2022-11-16T04:47:25.344Z,4.72
2022-11-16T04:48:56.645Z,3.31
2022-11-16T04:50:38.218Z,2.89
2022-11-16T04:52:09.745Z,3.12
2022-11-16T04:53:41.389Z,2.84
2022-11-16T04:55:12.857Z,2.98
2022-11-16T04:56:49.289Z,2.67
2022-11-16T04:58:20.698Z,4.13
2022-11-16T05:00:02.138Z,2.97
2022-11-16T05:01:33.407Z,2.94
2022-11-16T05:03:04.886Z,3.03
2022-11-16T05:04:36.246Z,3.16
2022-11-16T05:06:07.642Z,2.51
2022-11-16T05:07:39.220Z,3.33
2022-11-16T05:09:10.787Z,3.51
2022-11-16T05:10:59.023Z,3.34
2022-11-16T05:12:30.981Z,3.49
2022-11-16T05:14:22.329Z,3.50
2022-11-16T05:15:53.765Z,4.44
2022-11-16T05:17:26.385Z,3.46
2022-11-16T05:18:57.700Z,2.69
2022-11-16T05:20:40.768Z,3.44
2022-11-16T05:22:14.590Z,2.92
2022-11-16T05:23:56.033Z,2.93
2022-11-16T05:25:41.103Z,3.87
2022-11-16T05:27:12.448Z,3.34
2022-11-16T05:28:44.193Z,3.36
2022-11-16T05:30:15.641Z,4.40
2022-11-16T05:31:47.046Z,5.96
2022-11-16T05:33:18.864Z,4.60
2022-11-16T05:34:50.449Z,4.24
2022-11-16T05:36:23.325Z,4.44
2022-11-16T05:37:54.811Z,4.31
2022-11-16T05:39:26.131Z,4.16
2022-11-16T05:40:57.510Z,3.52
2022-11-16T05:42:35.174Z,3.59
2022-11-16T05:44:06.582Z,4.36
2022-11-16T05:45:37.856Z,3.64
2022-11-16T05:47:09.495Z,3.61
2022-11-16T05:48:51.230Z,3.71
2022-11-16T05:50:43.148Z,3.38
2022-11-16T05:52:19.786Z,3.75
2022-11-16T05:53:56.310Z,3.57
2022-11-16T05:55:27.848Z,2.65
2022-11-16T05:56:59.388Z,2.99
2022-11-16T05:58:41.227Z,3.08
2022-11-16T06:00:12.822Z,4.98
2022-11-16T06:01:44.500Z,4.05
2022-11-16T06:03:20.961Z,3.23
2022-11-16T06:04:57.885Z,3.42
2022-11-16T06:06:29.866Z,2.40
2022-11-16T06:08:01.138Z,2.52
2022-11-16T06:10:08.730Z,3.17
2022-11-16T06:11:40.130Z,3.56
2022-11-16T06:13:11.482Z,3.72
2022-11-16T06:15:36.790Z,4.35
2022-11-16T06:17:09.214Z,3.70
2022-11-16T06:18:40.583Z,4.60
2022-11-16T06:20:12.061Z,2.25
2022-11-16T06:21:43.397Z,1.96
2022-11-16T06:23:16.250Z,3.78
2022-11-16T06:24:47.550Z,4.98
2022-11-16T06:26:45.453Z,2.98
2022-11-16T06:28:17.019Z,4.32
2022-11-16T06:30:08.340Z,3.45
2022-11-16T06:32:15.443Z,4.20
2022-11-16T06:33:59.469Z,3.22
2022-11-16T06:35:30.881Z,3.33
2022-11-16T06:37:02.210Z,3.12
2022-11-16T06:38:34.008Z,3.62
2022-11-16T06:40:05.850Z,3.03
2022-11-16T06:42:22.669Z,3.62
2022-11-16T06:43:59.011Z,3.26
2022-11-16T06:46:09.152Z,4.01
2022-11-16T06:47:40.796Z,5.06
2022-11-16T06:49:12.460Z,3.29
2022-11-16T06:50:43.860Z,4.55
2022-11-16T06:52:15.122Z,3.22
2022-11-16T06:53:46.535Z,3.67
2022-11-16T06:55:23.037Z,3.91
2022-11-16T06:56:59.390Z,3.82
2022-11-16T06:58:31.436Z,3.94
2022-11-16T07:00:03.753Z,3.47
2022-11-16T07:01:46.904Z,3.61
2022-11-16T07:03:50.506Z,2.78
2022-11-16T07:05:21.942Z,3.26
2022-11-16T07:06:53.550Z,3.28
2022-11-16T07:08:25.002Z,4.78
2022-11-16T07:09:56.797Z,4.42
2022-11-16T07:11:28.266Z,5.79
2022-11-16T07:13:00.017Z,4.46
2022-11-16T07:14:31.354Z,3.94
2022-11-16T07:16:02.871Z,5.92
2022-11-16T07:17:34.362Z,4.45
2022-11-16T07:19:05.716Z,4.40
2022-11-16T07:20:37.255Z,5.33
2022-11-16T07:22:08.674Z,4.56
2022-11-16T07:23:40.240Z,7.06
2022-11-16T07:25:11.724Z,5.96
2022-11-16T07:26:44.092Z,5.34
2022-11-16T07:28:16.629Z,5.24
2022-11-16T07:29:48.234Z,6.46
2022-11-16T07:31:19.578Z,7.06
2022-11-16T07:32:50.995Z,7.07
2022-11-16T07:34:23.121Z,6.47
2022-11-16T07:35:56.059Z,6.28
2022-11-16T07:37:27.575Z,6.05
2022-11-16T07:38:58.921Z,6.96
2022-11-16T07:40:41.026Z,5.74
2022-11-16T07:42:14.458Z,7.51
2022-11-16T07:43:49.897Z,5.93
2022-11-16T07:45:24.335Z,7.61
2022-11-16T07:47:03.771Z,6.86
2022-11-16T07:48:35.450Z,7.74
2022-11-16T07:50:07.073Z,8.53
2022-11-16T07:51:39.040Z,7.40
2022-11-16T07:53:10.474Z,7.26
2022-11-16T07:54:44.032Z,8.40
2022-11-16T07:56:15.464Z,7.08
2022-11-16T07:57:51.940Z,8.40
2022-11-16T07:59:24.965Z,8.06
2022-11-16T08:00:56.794Z,7.92
2022-11-16T08:02:28.287Z,8.31
2022-11-16T08:03:59.710Z,8.23
2022-11-16T08:05:31.056Z,9.26
2022-11-16T08:07:02.932Z,8.77
2022-11-16T08:08:35.078Z,10.38
2022-11-16T08:10:06.930Z,10.44
2022-11-16T08:11:38.837Z,8.55
2022-11-16T08:13:10.289Z,7.52
2022-11-16T08:14:42.498Z,11.32
2022-11-16T08:16:19.320Z,11.69
2022-11-16T08:17:50.965Z,11.09
2022-11-16T08:19:22.422Z,9.47
2022-11-16T08:20:53.931Z,8.21
2022-11-16T08:22:25.717Z,7.91
2022-11-16T08:23:58.907Z,8.18
2022-11-16T08:25:30.674Z,9.02
2022-11-16T08:27:02.059Z,9.79
2022-11-16T08:28:33.583Z,9.71
2022-11-16T08:30:05.319Z,8.70
2022-11-16T08:31:36.831Z,11.66
2022-11-16T08:33:08.128Z,9.25
2022-11-16T08:34:39.639Z,8.60
2022-11-16T08:36:13.760Z,8.96
2022-11-16T08:37:45.686Z,10.61
2022-11-16T08:39:17.076Z,7.92
2022-11-16T08:40:48.817Z,9.69
2022-11-16T08:42:20.372Z,8.92
2022-11-16T08:43:52.002Z,9.23
2022-11-16T08:45:23.285Z,8.95
2022-11-16T08:46:55.000Z,12.65
2022-11-16T08:48:41.432Z,10.25
2022-11-16T08:50:12.802Z,9.99
2022-11-16T08:51:44.125Z,10.34
2022-11-16T08:53:15.442Z,8.17
2022-11-16T08:54:46.773Z,8.44
2022-11-16T08:56:18.225Z,10.61
2022-11-16T08:57:54.723Z,8.87
2022-11-16T08:59:26.032Z,8.76
2022-11-16T09:00:57.595Z,11.33
2022-11-16T09:02:28.872Z,11.16
2022-11-16T09:04:00.242Z,9.58
2022-11-16T09:05:31.544Z,9.27
2022-11-16T09:07:03.403Z,8.76
2022-11-16T09:08:35.432Z,9.80
2022-11-16T09:10:07.094Z,9.70
2022-11-16T09:11:38.538Z,8.05
2022-11-16T09:13:25.152Z,10.34
2022-11-16T09:14:56.896Z,12.57
2022-11-16T09:16:28.482Z,10.97
2022-11-16T09:18:00.453Z,11.06
2022-11-16T09:19:32.104Z,11.22
2022-11-16T09:21:03.929Z,9.87
2022-11-16T09:22:35.635Z,8.43
2022-11-16T09:24:07.037Z,10.94
2022-11-16T09:25:38.568Z,10.49
2022-11-16T09:27:15.196Z,10.87
2022-11-16T09:28:46.824Z,10.68
2022-11-16T09:30:18.134Z,8.61
2022-11-16T09:31:49.825Z,8.82
2022-11-16T09:33:21.333Z,9.45
2022-11-16T09:34:52.703Z,8.14
2022-11-16T09:36:29.174Z,7.14
2022-11-16T09:38:00.544Z,9.25
2022-11-16T09:39:32.548Z,9.40
2022-11-16T09:41:03.946Z,10.21
2022-11-16T09:42:35.649Z,12.68
2022-11-16T09:44:07.759Z,9.14
2022-11-16T09:45:40.045Z,9.71
2022-11-16T09:47:16.398Z,11.57
2022-11-16T09:48:48.602Z,11.20
2022-11-16T09:50:19.967Z,12.85
2022-11-16T09:51:51.465Z,10.69
2022-11-16T09:53:22.840Z,9.80
2022-11-16T09:54:54.897Z,8.60
2022-11-16T09:56:26.534Z,9.05
2022-11-16T09:57:57.833Z,11.27
2022-11-16T09:59:29.485Z,10.16
2022-11-16T10:01:00.802Z,10.79
2022-11-16T10:02:32.482Z,9.20
2022-11-16T10:04:03.913Z,8.17
2022-11-16T10:05:35.374Z,9.56
2022-11-16T10:07:06.724Z,10.05
2022-11-16T10:08:38.756Z,8.52
2022-11-16T10:10:10.362Z,6.88
2022-11-16T10:11:41.845Z,10.04
2022-11-16T10:13:13.168Z,8.90
2022-11-16T10:14:44.632Z,10.34
2022-11-16T10:16:16.803Z,8.68
2022-11-16T10:17:48.106Z,10.77
2022-11-16T10:19:19.680Z,10.34
2022-11-16T10:20:51.275Z,9.87
2022-11-16T10:22:22.727Z,9.11
2022-11-16T10:23:59.163Z,10.50
2022-11-16T10:25:30.954Z,7.82
2022-11-16T10:27:02.304Z,9.35
2022-11-16T10:28:33.793Z,9.61
2022-11-16T10:30:05.098Z,9.46
2022-11-16T10:31:36.585Z,10.26
2022-11-16T10:33:11.157Z,9.42
2022-11-16T10:34:42.756Z,9.54
2022-11-16T10:36:14.150Z,10.42
2022-11-16T10:37:45.642Z,11.33
2022-11-16T10:39:17.183Z,8.38
2022-11-16T10:40:48.578Z,11.39
2022-11-16T10:42:19.882Z,7.41
2022-11-16T10:43:51.141Z,10.07
2022-11-16T10:45:22.807Z,7.72
2022-11-16T10:46:54.167Z,8.58
2022-11-16T10:48:25.521Z,6.72
2022-11-16T10:49:57.185Z,10.10
2022-11-16T10:51:28.586Z,9.25
2022-11-16T10:53:00.020Z,6.86
2022-11-16T10:54:31.573Z,6.43
2022-11-16T10:56:03.004Z,6.70
2022-11-16T10:57:34.497Z,8.85
2022-11-16T10:59:05.937Z,7.29
2022-11-16T11:00:37.374Z,7.04
2022-11-16T11:02:08.662Z,7.21
2022-11-16T11:03:39.987Z,6.43
2022-11-16T11:05:11.366Z,8.15
2022-11-16T11:06:42.939Z,7.82
2022-11-16T11:08:15.023Z,8.02
2022-11-16T11:09:46.352Z,7.04
2022-11-16T11:11:17.772Z,6.76
2022-11-16T11:12:49.161Z,6.88
2022-11-16T11:14:20.567Z,5.17
2022-11-16T11:15:52.367Z,5.04
2022-11-16T11:17:23.781Z,6.30
2022-11-16T11:19:06.265Z,7.26
2022-11-16T11:20:44.742Z,6.09
2022-11-16T11:22:37.849Z,6.13
2022-11-16T11:24:42.255Z,7.18
2022-11-16T11:26:15.073Z,8.41
2022-11-16T11:27:46.514Z,5.93
2022-11-16T11:29:18.137Z,6.52
2022-11-16T11:30:49.543Z,6.38
2022-11-16T11:32:24.180Z,7.44
2022-11-16T11:33:56.114Z,6.89
2022-11-16T11:35:27.511Z,5.65
2022-11-16T11:36:58.896Z,6.05
2022-11-16T11:38:30.316Z,8.08
2022-11-16T11:40:01.705Z,6.42
2022-11-16T11:41:33.143Z,5.74
2022-11-16T11:43:05.253Z,6.35
2022-11-16T11:44:36.593Z,6.72
2022-11-16T11:46:08.454Z,7.54
2022-11-16T11:47:57.288Z,6.40
2022-11-16T11:49:33.706Z,7.30
2022-11-16T11:51:05.588Z,9.36
2022-11-16T11:52:37.125Z,7.05
2022-11-16T11:54:08.437Z,6.93
2022-11-16T11:55:39.763Z,8.04
2022-11-16T11:57:11.067Z,7.49
2022-11-16T11:58:42.518Z,8.10
2022-11-16T12:00:14.259Z,7.27
2022-11-16T12:01:45.876Z,6.60
2022-11-16T12:03:17.302Z,6.39
2022-11-16T12:04:48.690Z,6.30
2022-11-16T12:06:20.198Z,7.20
2022-11-16T12:07:51.509Z,8.30
2022-11-16T12:09:22.992Z,7.37
2022-11-16T12:10:54.375Z,6.93
2022-11-16T12:12:25.781Z,7.10
2022-11-16T12:13:57.297Z,8.83
2022-11-16T12:15:28.708Z,7.09
2022-11-16T12:17:00.370Z,6.37
2022-11-16T12:18:31.870Z,7.55
2022-11-16T12:20:03.272Z,8.69
2022-11-16T12:21:34.651Z,7.67
2022-11-16T12:23:06.201Z,8.04
2022-11-16T12:24:37.707Z,6.80
2022-11-16T12:26:09.075Z,7.51
2022-11-16T12:27:40.481Z,7.68
2022-11-16T12:29:11.852Z,8.62
2022-11-16T12:30:43.375Z,8.13
2022-11-16T12:32:14.737Z,7.91
2022-11-16T12:33:46.128Z,8.65
2022-11-16T12:35:17.526Z,7.14
2022-11-16T12:36:48.866Z,6.59
2022-11-16T12:38:26.060Z,6.66
2022-11-16T12:39:57.792Z,8.03
2022-11-16T12:41:29.201Z,8.50
2022-11-16T12:43:00.649Z,8.24
2022-11-16T12:44:32.081Z,8.87
2022-11-16T12:46:08.484Z,7.76
2022-11-16T12:47:40.271Z,7.12
2022-11-16T12:49:11.582Z,8.03
2022-11-16T12:50:42.931Z,6.23
2022-11-16T12:52:14.600Z,7.71
2022-11-16T12:53:46.087Z,7.04
2022-11-16T12:55:26.770Z,7.37
2022-11-16T12:56:59.037Z,7.48
2022-11-16T12:58:30.536Z,7.86
2022-11-16T13:00:01.846Z,6.57
2022-11-16T13:01:33.312Z,8.22
2022-11-16T13:03:04.683Z,7.42
2022-11-16T13:04:36.231Z,6.74
2022-11-16T13:06:07.591Z,6.66
2022-11-16T13:07:39.160Z,6.87
2022-11-16T13:09:10.639Z,7.49
2022-11-16T13:10:42.022Z,6.49
2022-11-16T13:12:13.486Z,8.13
2022-11-16T13:13:51.410Z,6.24
2022-11-16T13:15:24.536Z,7.67
2022-11-16T13:16:55.980Z,6.72
2022-11-16T13:18:27.350Z,7.65
2022-11-16T13:19:58.770Z,7.06
2022-11-16T13:21:30.170Z,6.08
2022-11-16T13:23:01.551Z,6.84
2022-11-16T13:24:32.886Z,6.32
2022-11-16T13:26:04.394Z,9.86
2022-11-16T13:27:35.803Z,6.51
2022-11-16T13:29:07.179Z,6.91
2022-11-16T13:30:38.728Z,7.21
2022-11-16T13:32:10.142Z,7.75
2022-11-16T13:33:43.961Z,6.42
2022-11-16T13:35:20.197Z,8.79
2022-11-16T13:36:51.546Z,5.27
2022-11-16T13:38:22.963Z,6.16
2022-11-16T13:39:54.381Z,7.61
2022-11-16T13:41:25.785Z,7.81
2022-11-16T13:42:57.093Z,6.58
2022-11-16T13:44:28.454Z,6.14
2022-11-16T13:45:59.856Z,8.05
2022-11-16T13:47:31.259Z,9.66
2022-11-16T13:49:02.528Z,13.73
2022-11-16T13:50:37.525Z,9.32
2022-11-16T13:54:43.326Z,9.69
2022-11-16T13:56:16.436Z,8.05
2022-11-16T13:57:47.749Z,9.54
2022-11-16T13:59:19.243Z,12.21
2022-11-16T14:01:00.871Z,8.45
2022-11-16T14:02:32.280Z,7.61
2022-11-16T14:04:30.998Z,8.11
2022-11-16T14:07:53.659Z,8.20
2022-11-16T14:09:40.063Z,7.46
2022-11-16T14:11:41.527Z,8.17
2022-11-16T14:13:12.830Z,7.79
2022-11-16T14:14:44.259Z,7.71
2022-11-16T14:16:44.247Z,6.65
2022-11-16T14:18:15.626Z,7.25
2022-11-16T14:19:57.074Z,6.64
2022-11-16T14:21:28.511Z,8.11
2022-11-16T14:22:59.875Z,6.68
2022-11-16T14:24:51.280Z,7.51
2022-11-16T14:26:33.435Z,9.37
2022-11-16T14:28:14.931Z,7.94
2022-11-16T14:30:01.878Z,6.36
2022-11-16T14:31:33.395Z,7.11
2022-11-16T14:33:04.896Z,7.24
2022-11-16T14:34:36.275Z,6.57
2022-11-16T14:36:07.641Z,7.40
2022-11-16T14:38:09.431Z,7.48
2022-11-16T14:41:47.065Z,7.90
2022-11-16T14:43:38.754Z,6.75
2022-11-16T14:45:10.344Z,7.14
2022-11-16T14:47:07.170Z,7.14
2022-11-16T14:48:53.342Z,6.46
2022-11-16T14:50:56.765Z,6.79
2022-11-16T14:52:39.193Z,7.15
2022-11-16T14:54:20.732Z,6.31
2022-11-16T14:55:52.089Z,6.14
2022-11-16T14:59:33.119Z,7.54
2022-11-16T15:01:09.662Z,4.83
2022-11-16T15:03:04.423Z,8.67
2022-11-16T15:04:41.536Z,7.25
2022-11-16T15:06:45.649Z,6.98
2022-11-16T15:08:17.423Z,6.85
2022-11-16T15:09:48.975Z,7.47
2022-11-16T15:11:20.473Z,6.69
2022-11-16T15:12:51.824Z,6.97
2022-11-16T15:14:23.199Z,6.39
2022-11-16T15:15:54.878Z,6.22
2022-11-16T15:17:31.827Z,8.24
2022-11-16T15:19:04.909Z,7.68
2022-11-16T15:21:16.521Z,7.02
2022-11-16T15:22:48.082Z,8.19
2022-11-16T15:24:30.505Z,7.39
2022-11-16T15:26:03.333Z,6.06
2022-11-16T15:27:35.020Z,7.78
2022-11-16T15:29:06.785Z,9.15
2022-11-16T15:30:38.206Z,8.26
2022-11-16T15:32:09.655Z,7.01
2022-11-16T15:33:45.955Z,7.44
2022-11-16T15:36:17.932Z,7.42
2022-11-16T15:37:50.173Z,6.81
2022-11-16T15:39:21.707Z,7.08
2022-11-16T15:40:53.331Z,8.59
2022-11-16T15:42:24.673Z,7.58
2022-11-16T15:44:13.154Z,6.62
2022-11-16T15:46:05.461Z,8.35
2022-11-16T15:47:37.392Z,7.49
2022-11-16T15:49:08.959Z,7.50
2022-11-16T15:50:40.705Z,8.90
2022-11-16T15:52:12.453Z,7.41
2022-11-16T15:53:44.168Z,11.55
2022-11-16T15:55:15.894Z,9.95
2022-11-16T15:56:47.709Z,11.17
2022-11-16T15:58:19.627Z,9.53
2022-11-16T15:59:56.868Z,9.34
2022-11-16T16:01:28.737Z,12.36
2022-11-16T16:03:00.725Z,10.05
2022-11-16T16:04:33.058Z,9.14
2022-11-16T16:06:04.475Z,9.59
2022-11-16T16:07:35.956Z,9.24
2022-11-16T16:09:07.332Z,8.70
2022-11-16T16:10:39.077Z,8.94
2022-11-16T16:12:10.343Z,8.39
2022-11-16T16:13:41.635Z,7.58
2022-11-16T16:15:13.013Z,9.10
2022-11-16T16:16:44.488Z,9.50
2022-11-16T16:18:16.009Z,7.70
2022-11-16T16:19:47.431Z,8.44
2022-11-16T16:21:18.888Z,9.49
2022-11-16T16:22:50.347Z,10.19
2022-11-16T16:24:21.647Z,9.14
2022-11-16T16:25:53.196Z,12.94
2022-11-16T16:27:24.514Z,10.83
2022-11-16T16:28:55.877Z,13.22
2022-11-16T16:30:27.252Z,10.27
2022-11-16T16:31:58.569Z,8.48
2022-11-16T16:33:29.902Z,9.17
2022-11-16T16:35:01.487Z,12.44
2022-11-16T16:36:32.935Z,9.32
2022-11-16T16:38:04.466Z,10.28
2022-11-16T16:39:36.865Z,11.62
2022-11-16T16:41:08.122Z,9.63
2022-11-16T16:42:39.509Z,8.53
2022-11-16T16:44:10.933Z,9.52
2022-11-16T16:47:43.557Z,9.75
2022-11-16T16:49:14.944Z,9.76
2022-11-16T16:50:46.594Z,11.82
2022-11-16T16:52:18.042Z,11.14
2022-11-16T16:53:49.536Z,10.86
2022-11-16T16:55:21.253Z,11.13
2022-11-16T16:56:52.911Z,12.28
2022-11-16T16:58:24.223Z,11.28
2022-11-16T16:59:55.799Z,12.17
2022-11-16T17:01:27.218Z,10.70
2022-11-16T17:02:58.575Z,11.86
2022-11-16T17:04:29.994Z,9.41
2022-11-16T17:06:01.581Z,10.71
2022-11-16T17:07:33.046Z,11.12
2022-11-16T17:09:04.653Z,12.47
2022-11-16T17:10:36.156Z,12.66
2022-11-16T17:12:07.466Z,13.05
2022-11-16T17:13:39.038Z,11.61
2022-11-16T17:15:13.840Z,12.65
2022-11-16T17:16:47.986Z,14.48
2022-11-16T17:18:19.327Z,13.48
2022-11-16T17:19:50.577Z,18.40
2022-11-16T17:21:21.927Z,25.17
2022-11-16T17:22:53.301Z,16.58
2022-11-16T17:24:24.541Z,12.11
2022-11-16T17:25:55.814Z,12.10
2022-11-16T17:27:27.581Z,11.10
2022-11-16T17:28:59.007Z,10.53
2022-11-16T17:30:30.352Z,11.87
2022-11-16T17:32:01.907Z,11.66
2022-11-16T17:33:33.565Z,9.79
2022-11-16T17:35:05.205Z,9.92
2022-11-16T17:36:36.895Z,11.01
2022-11-16T17:38:13.454Z,7.58
2022-11-16T17:39:44.870Z,9.07
2022-11-16T17:41:16.233Z,11.15
2022-11-16T17:42:47.846Z,9.73
2022-11-16T17:44:21.891Z,12.11
2022-11-16T17:45:54.171Z,11.68
2022-11-16T17:47:25.732Z,12.56
2022-11-16T17:48:57.094Z,9.70
2022-11-16T17:50:28.442Z,11.52
2022-11-16T17:51:59.811Z,9.21
2022-11-16T17:53:32.787Z,8.58
2022-11-16T17:55:04.431Z,9.27
2022-11-16T17:56:35.775Z,11.05
2022-11-16T17:58:07.094Z,10.17
2022-11-16T17:59:38.382Z,9.77
2022-11-16T18:01:09.856Z,10.22
2022-11-16T18:02:41.200Z,10.38
2022-11-16T18:04:12.535Z,11.38
2022-11-16T18:05:43.894Z,8.82
2022-11-16T18:07:15.442Z,9.31
2022-11-16T18:08:46.842Z,9.50
2022-11-16T18:10:19.510Z,9.83
2022-11-16T18:11:51.094Z,11.58
2022-11-16T18:13:22.647Z,8.74
2022-11-16T18:15:21.374Z,10.28
2022-11-16T18:16:59.163Z,10.47
2022-11-16T18:18:30.600Z,10.05
2022-11-16T18:20:01.904Z,11.24
2022-11-16T18:21:33.443Z,9.38
2022-11-16T18:23:05.011Z,11.48
2022-11-16T18:24:36.435Z,11.30
2022-11-16T18:26:07.730Z,9.18
2022-11-16T18:27:39.032Z,10.19
2022-11-16T18:29:10.367Z,10.97
2022-11-16T18:30:41.717Z,10.54
2022-11-16T18:32:25.587Z,11.04
2022-11-16T18:33:57.091Z,11.18
2022-11-16T18:35:28.461Z,8.94
2022-11-16T18:36:59.782Z,8.65
2022-11-16T18:38:31.129Z,9.84
2022-11-16T18:40:02.368Z,10.18
2022-11-16T18:41:33.741Z,11.57
2022-11-16T18:43:05.280Z,9.40
2022-11-16T18:44:36.631Z,10.41
2022-11-16T18:46:07.932Z,11.74
2022-11-16T18:47:39.265Z,11.59
2022-11-16T18:49:10.571Z,9.63
2022-11-16T18:50:41.978Z,12.14
2022-11-16T18:52:13.253Z,11.42
2022-11-16T18:53:49.743Z,11.59
2022-11-16T18:55:21.085Z,13.78
2022-11-16T18:56:52.445Z,12.82
2022-11-16T18:58:49.267Z,15.24
2022-11-16T19:00:21.480Z,11.61
2022-11-16T19:01:57.827Z,11.09
2022-11-16T19:03:29.356Z,12.07
2022-11-16T19:05:00.816Z,13.29
2022-11-16T19:06:32.137Z,11.13
2022-11-16T19:08:04.559Z,9.42
2022-11-16T19:09:35.904Z,11.52
2022-11-16T19:11:07.169Z,12.64
2022-11-16T19:12:39.041Z,11.10
2022-11-16T19:14:10.357Z,14.09
2022-11-16T19:15:41.917Z,15.44
2022-11-16T19:17:13.509Z,29.14
2022-11-16T19:18:44.880Z,27.92
2022-11-16T19:20:16.393Z,21.72
2022-11-16T19:21:47.632Z,24.81
2022-11-16T19:23:19.155Z,19.20
2022-11-16T19:24:50.788Z,18.35
2022-11-16T19:26:22.221Z,16.13
2022-11-16T19:27:53.773Z,15.43
2022-11-16T19:29:25.176Z,13.34
2022-11-16T19:30:56.477Z,14.67
2022-11-16T19:32:27.712Z,15.63
2022-11-16T19:33:59.020Z,17.25
2022-11-16T19:35:35.264Z,16.20
2022-11-16T19:37:06.658Z,11.77
2022-11-16T19:38:37.899Z,12.31
2022-11-16T19:40:10.058Z,16.81
2022-11-16T19:41:41.554Z,13.90
2022-11-16T19:43:19.060Z,15.14
2022-11-16T19:44:50.495Z,16.03
2022-11-16T19:46:21.758Z,13.27
2022-11-16T19:47:53.242Z,12.70
2022-11-16T19:49:25.700Z,14.64
2022-11-16T19:50:57.111Z,14.41
2022-11-16T19:52:28.408Z,15.57
2022-11-16T19:53:59.724Z,13.36
2022-11-16T19:55:30.979Z,13.44
2022-11-16T19:57:02.269Z,14.72
2022-11-16T19:58:33.905Z,14.14
2022-11-16T20:00:05.393Z,16.26
2022-11-16T20:01:37.038Z,15.14
2022-11-16T20:03:13.429Z,15.27
2022-11-16T20:04:44.687Z,13.79
2022-11-16T20:06:16.026Z,13.94
2022-11-16T20:07:47.374Z,16.54
2022-11-16T20:09:18.779Z,18.41
2022-11-16T20:10:50.082Z,14.51
2022-11-16T20:12:21.305Z,14.62
2022-11-16T20:13:52.632Z,14.32
2022-11-16T20:15:23.959Z,12.34
2022-11-16T20:16:55.274Z,14.63
2022-11-16T20:18:26.493Z,14.91
2022-11-16T20:19:57.754Z,15.25
2022-11-16T20:21:29.079Z,13.96
2022-11-16T20:23:00.779Z,11.19
2022-11-16T20:24:32.083Z,12.78
2022-11-16T20:26:03.422Z,12.80
2022-11-16T20:27:35.376Z,16.61
2022-11-16T20:29:06.686Z,11.60
2022-11-16T20:30:37.976Z,13.13
2022-11-16T20:32:09.258Z,12.55
2022-11-16T20:33:41.840Z,12.65
2022-11-16T20:35:18.807Z,17.32
2022-11-16T20:36:50.420Z,12.06
2022-11-16T20:38:21.751Z,13.08
2022-11-16T20:39:53.083Z,12.67
2022-11-16T20:41:24.430Z,12.34
2022-11-16T20:42:55.850Z,11.01
2022-11-16T20:44:27.382Z,10.15
2022-11-16T20:45:58.631Z,12.58
2022-11-16T20:47:29.943Z,11.67